sensor_id;sensor_type;location;lat;lon;timestamp;temperature;humidity
34147;DHT22;20423;49.448;9.056;2022-10-26T00:01:58;10.90;99.90
34147;DHT22;20423;49.448;9.056;2022-10-26T00:04:23;10.90;99.90
34147;DHT22;20423;49.448;9.056;2022-10-26T00:06:49;10.90;99.90
34147;DHT22;20423;49.448;9.056;2022-10-26T00:09:15;10.90;99.90
34147;DHT22;20423;49.448;9.056;2022-10-26T00:11:40;10.90;99.90
34147;DHT22;20423;49.448;9.056;2022-10-26T00:14:06;10.90;99.90
34147;DHT22;20423;49.448;9.056;2022-10-26T00:16:31;10.90;99.90
34147;DHT22;20423;49.448;9.056;2022-10-26T00:19:06;10.90;99.90
34147;DHT22;20423;49.448;9.056;2022-10-26T00:21:32;10.90;99.90
34147;DHT22;20423;49.448;9.056;2022-10-26T00:23:58;10.90;99.90
34147;DHT22;20423;49.448;9.056;2022-10-26T00:26:24;10.90;99.90
34147;DHT22;20423;49.448;9.056;2022-10-26T00:28:52;10.90;99.90
34147;DHT22;20423;49.448;9.056;2022-10-26T00:31:19;10.90;99.90
34147;DHT22;20423;49.448;9.056;2022-10-26T00:33:45;10.90;99.90
34147;DHT22;20423;49.448;9.056;2022-10-26T00:36:11;10.90;99.90
34147;DHT22;20423;49.448;9.056;2022-10-26T00:38:38;10.90;99.90
34147;DHT22;20423;49.448;9.056;2022-10-26T00:41:14;10.90;99.90
34147;DHT22;20423;49.448;9.056;2022-10-26T00:43:40;11.00;99.90
34147;DHT22;20423;49.448;9.056;2022-10-26T00:46:10;11.00;99.90
34147;DHT22;20423;49.448;9.056;2022-10-26T00:48:40;11.00;99.90
34147;DHT22;20423;49.448;9.056;2022-10-26T00:51:12;11.10;99.90
34147;DHT22;20423;49.448;9.056;2022-10-26T00:53:38;11.10;99.90
34147;DHT22;20423;49.448;9.056;2022-10-26T00:56:05;11.10;99.90
34147;DHT22;20423;49.448;9.056;2022-10-26T00:58:31;11.10;99.90
34147;DHT22;20423;49.448;9.056;2022-10-26T01:00:57;11.10;99.90
34147;DHT22;20423;49.448;9.056;2022-10-26T01:03:22;11.00;99.90
34147;DHT22;20423;49.448;9.056;2022-10-26T01:05:55;11.10;99.90
34147;DHT22;20423;49.448;9.056;2022-10-26T01:08:21;11.10;99.90
34147;DHT22;20423;49.448;9.056;2022-10-26T01:10:48;11.20;99.90
34147;DHT22;20423;49.448;9.056;2022-10-26T01:13:15;11.20;99.90
34147;DHT22;20423;49.448;9.056;2022-10-26T01:24:57;11.20;99.90
34147;DHT22;20423;49.448;9.056;2022-10-26T01:27:35;11.20;99.90
34147;DHT22;20423;49.448;9.056;2022-10-26T01:32:59;11.30;99.90
34147;DHT22;20423;49.448;9.056;2022-10-26T01:38:43;11.30;99.90
34147;DHT22;20423;49.448;9.056;2022-10-26T01:41:25;11.30;99.90
34147;DHT22;20423;49.448;9.056;2022-10-26T01:44:09;11.30;99.90
34147;DHT22;20423;49.448;9.056;2022-10-26T01:46:41;11.40;99.90
34147;DHT22;20423;49.448;9.056;2022-10-26T01:49:10;11.40;99.90
34147;DHT22;20423;49.448;9.056;2022-10-26T01:51:39;11.40;99.90
34147;DHT22;20423;49.448;9.056;2022-10-26T01:54:06;11.40;99.90
34147;DHT22;20423;49.448;9.056;2022-10-26T01:56:37;11.40;99.90
34147;DHT22;20423;49.448;9.056;2022-10-26T02:15:52;11.30;99.90
34147;DHT22;20423;49.448;9.056;2022-10-26T02:21:11;11.20;99.90
34147;DHT22;20423;49.448;9.056;2022-10-26T02:23:39;11.20;99.90
34147;DHT22;20423;49.448;9.056;2022-10-26T02:26:07;11.10;99.90
34147;DHT22;20423;49.448;9.056;2022-10-26T02:28:42;11.20;99.90
34147;DHT22;20423;49.448;9.056;2022-10-26T02:31:09;11.20;99.90
34147;DHT22;20423;49.448;9.056;2022-10-26T02:33:39;11.20;99.90
34147;DHT22;20423;49.448;9.056;2022-10-26T02:36:08;11.20;99.90
34147;DHT22;20423;49.448;9.056;2022-10-26T02:38:36;11.30;99.90
34147;DHT22;20423;49.448;9.056;2022-10-26T02:41:05;11.20;99.90
34147;DHT22;20423;49.448;9.056;2022-10-26T02:43:36;11.20;99.90
34147;DHT22;20423;49.448;9.056;2022-10-26T02:46:09;11.30;99.90
34147;DHT22;20423;49.448;9.056;2022-10-26T02:48:36;11.30;99.90
34147;DHT22;20423;49.448;9.056;2022-10-26T02:53:56;11.30;99.90
34147;DHT22;20423;49.448;9.056;2022-10-26T02:56:50;11.30;99.90
34147;DHT22;20423;49.448;9.056;2022-10-26T02:59:19;11.30;99.90
34147;DHT22;20423;49.448;9.056;2022-10-26T03:01:50;11.40;99.90
34147;DHT22;20423;49.448;9.056;2022-10-26T03:04:16;11.30;99.90
34147;DHT22;20423;49.448;9.056;2022-10-26T03:06:42;11.40;99.90
34147;DHT22;20423;49.448;9.056;2022-10-26T03:09:15;11.40;99.90
34147;DHT22;20423;49.448;9.056;2022-10-26T03:11:41;11.50;99.90
34147;DHT22;20423;49.448;9.056;2022-10-26T03:14:07;11.50;99.90
34147;DHT22;20423;49.448;9.056;2022-10-26T03:16:32;11.60;99.90
34147;DHT22;20423;49.448;9.056;2022-10-26T03:18:58;11.60;99.90
34147;DHT22;20423;49.448;9.056;2022-10-26T03:21:23;11.60;99.90
34147;DHT22;20423;49.448;9.056;2022-10-26T03:23:49;11.60;99.90
34147;DHT22;20423;49.448;9.056;2022-10-26T03:26:15;11.60;99.90
34147;DHT22;20423;49.448;9.056;2022-10-26T03:28:42;11.60;99.90
34147;DHT22;20423;49.448;9.056;2022-10-26T03:31:07;11.70;99.90
34147;DHT22;20423;49.448;9.056;2022-10-26T03:33:33;11.70;99.90
34147;DHT22;20423;49.448;9.056;2022-10-26T03:35:59;11.60;99.90
34147;DHT22;20423;49.448;9.056;2022-10-26T03:38:24;11.60;99.90
34147;DHT22;20423;49.448;9.056;2022-10-26T03:40:50;11.50;99.90
34147;DHT22;20423;49.448;9.056;2022-10-26T03:43:50;11.50;99.90
34147;DHT22;20423;49.448;9.056;2022-10-26T03:46:16;11.50;99.90
34147;DHT22;20423;49.448;9.056;2022-10-26T03:48:41;11.40;99.90
34147;DHT22;20423;49.448;9.056;2022-10-26T03:51:07;11.40;99.90
34147;DHT22;20423;49.448;9.056;2022-10-26T03:53:32;11.40;99.90
34147;DHT22;20423;49.448;9.056;2022-10-26T03:55:58;11.40;99.90
34147;DHT22;20423;49.448;9.056;2022-10-26T03:58:24;11.50;99.90
34147;DHT22;20423;49.448;9.056;2022-10-26T04:00:50;11.50;99.90
34147;DHT22;20423;49.448;9.056;2022-10-26T04:03:16;11.50;99.90
34147;DHT22;20423;49.448;9.056;2022-10-26T04:05:41;11.60;99.90
34147;DHT22;20423;49.448;9.056;2022-10-26T04:08:07;11.50;99.90
34147;DHT22;20423;49.448;9.056;2022-10-26T04:10:33;11.60;99.90
34147;DHT22;20423;49.448;9.056;2022-10-26T04:12:59;11.60;99.90
34147;DHT22;20423;49.448;9.056;2022-10-26T04:15:26;11.70;99.90
34147;DHT22;20423;49.448;9.056;2022-10-26T04:17:59;11.60;99.90
34147;DHT22;20423;49.448;9.056;2022-10-26T04:20:26;11.60;99.90
34147;DHT22;20423;49.448;9.056;2022-10-26T04:23:00;11.70;99.90
34147;DHT22;20423;49.448;9.056;2022-10-26T04:25:26;11.70;99.90
34147;DHT22;20423;49.448;9.056;2022-10-26T04:27:52;11.70;99.90
34147;DHT22;20423;49.448;9.056;2022-10-26T04:30:18;11.70;99.90
34147;DHT22;20423;49.448;9.056;2022-10-26T04:32:44;11.70;99.90
34147;DHT22;20423;49.448;9.056;2022-10-26T04:35:10;11.70;99.90
34147;DHT22;20423;49.448;9.056;2022-10-26T04:37:35;11.80;99.90
34147;DHT22;20423;49.448;9.056;2022-10-26T04:40:01;11.80;99.90
34147;DHT22;20423;49.448;9.056;2022-10-26T04:42:27;11.80;99.90
34147;DHT22;20423;49.448;9.056;2022-10-26T04:44:53;11.70;99.90
34147;DHT22;20423;49.448;9.056;2022-10-26T04:47:18;11.50;99.90
34147;DHT22;20423;49.448;9.056;2022-10-26T04:49:44;11.50;99.90
34147;DHT22;20423;49.448;9.056;2022-10-26T04:52:10;11.40;99.90
34147;DHT22;20423;49.448;9.056;2022-10-26T04:54:35;11.30;99.90
34147;DHT22;20423;49.448;9.056;2022-10-26T04:57:01;11.30;99.90
34147;DHT22;20423;49.448;9.056;2022-10-26T04:59:27;11.30;99.90
34147;DHT22;20423;49.448;9.056;2022-10-26T05:01:52;11.30;99.90
34147;DHT22;20423;49.448;9.056;2022-10-26T05:04:18;11.30;99.90
34147;DHT22;20423;49.448;9.056;2022-10-26T05:06:44;11.30;99.90
34147;DHT22;20423;49.448;9.056;2022-10-26T05:09:09;11.20;99.90
34147;DHT22;20423;49.448;9.056;2022-10-26T05:11:35;11.20;99.90
34147;DHT22;20423;49.448;9.056;2022-10-26T05:14:01;11.20;99.90
34147;DHT22;20423;49.448;9.056;2022-10-26T05:16:26;11.10;99.90
34147;DHT22;20423;49.448;9.056;2022-10-26T05:18:52;11.10;99.90
34147;DHT22;20423;49.448;9.056;2022-10-26T05:21:18;11.10;99.90
34147;DHT22;20423;49.448;9.056;2022-10-26T05:23:51;11.20;99.90
34147;DHT22;20423;49.448;9.056;2022-10-26T05:30:33;11.30;99.90
34147;DHT22;20423;49.448;9.056;2022-10-26T05:33:00;11.30;99.90
34147;DHT22;20423;49.448;9.056;2022-10-26T05:35:28;11.30;99.90
34147;DHT22;20423;49.448;9.056;2022-10-26T05:37:54;11.30;99.90
34147;DHT22;20423;49.448;9.056;2022-10-26T05:40:19;11.40;99.90
34147;DHT22;20423;49.448;9.056;2022-10-26T05:42:45;11.30;99.90
34147;DHT22;20423;49.448;9.056;2022-10-26T05:45:11;11.20;99.90
34147;DHT22;20423;49.448;9.056;2022-10-26T05:47:41;11.20;99.90
34147;DHT22;20423;49.448;9.056;2022-10-26T05:50:08;11.10;99.90
34147;DHT22;20423;49.448;9.056;2022-10-26T05:52:42;11.20;99.90
34147;DHT22;20423;49.448;9.056;2022-10-26T05:55:10;11.10;99.90
34147;DHT22;20423;49.448;9.056;2022-10-26T05:57:36;11.10;99.90
34147;DHT22;20423;49.448;9.056;2022-10-26T06:00:07;11.10;99.90
34147;DHT22;20423;49.448;9.056;2022-10-26T06:05:17;11.10;99.90
34147;DHT22;20423;49.448;9.056;2022-10-26T06:07:44;11.20;99.90
34147;DHT22;20423;49.448;9.056;2022-10-26T06:10:11;11.30;99.90
34147;DHT22;20423;49.448;9.056;2022-10-26T06:12:37;11.30;99.90
34147;DHT22;20423;49.448;9.056;2022-10-26T06:15:03;11.30;99.90
34147;DHT22;20423;49.448;9.056;2022-10-26T06:17:51;11.40;99.90
34147;DHT22;20423;49.448;9.056;2022-10-26T06:20:45;11.50;99.90
34147;DHT22;20423;49.448;9.056;2022-10-26T06:23:19;11.50;99.90
34147;DHT22;20423;49.448;9.056;2022-10-26T06:26:03;11.50;99.90
34147;DHT22;20423;49.448;9.056;2022-10-26T06:31:13;11.60;99.90
34147;DHT22;20423;49.448;9.056;2022-10-26T06:33:39;11.60;99.90
34147;DHT22;20423;49.448;9.056;2022-10-26T06:38:33;11.60;99.90
34147;DHT22;20423;49.448;9.056;2022-10-26T06:41:00;11.70;99.90
34147;DHT22;20423;49.448;9.056;2022-10-26T06:43:30;11.70;99.90
34147;DHT22;20423;49.448;9.056;2022-10-26T06:46:13;11.70;99.90
34147;DHT22;20423;49.448;9.056;2022-10-26T06:51:30;11.80;99.90
34147;DHT22;20423;49.448;9.056;2022-10-26T06:54:56;11.80;99.90
34147;DHT22;20423;49.448;9.056;2022-10-26T06:57:03;11.80;99.90
34147;DHT22;20423;49.448;9.056;2022-10-26T06:59:43;11.80;99.90
34147;DHT22;20423;49.448;9.056;2022-10-26T07:02:13;11.90;99.90
34147;DHT22;20423;49.448;9.056;2022-10-26T07:04:40;11.80;99.90
34147;DHT22;20423;49.448;9.056;2022-10-26T07:07:11;11.80;99.90
34147;DHT22;20423;49.448;9.056;2022-10-26T07:09:38;11.80;99.90
34147;DHT22;20423;49.448;9.056;2022-10-26T07:12:04;11.80;99.90
34147;DHT22;20423;49.448;9.056;2022-10-26T07:14:29;11.80;99.90
34147;DHT22;20423;49.448;9.056;2022-10-26T07:16:55;11.80;99.90
34147;DHT22;20423;49.448;9.056;2022-10-26T07:19:22;11.90;99.90
34147;DHT22;20423;49.448;9.056;2022-10-26T07:21:48;12.00;99.90
34147;DHT22;20423;49.448;9.056;2022-10-26T07:24:13;12.10;99.90
34147;DHT22;20423;49.448;9.056;2022-10-26T07:26:39;12.10;99.90
34147;DHT22;20423;49.448;9.056;2022-10-26T07:29:05;12.10;99.90
34147;DHT22;20423;49.448;9.056;2022-10-26T07:31:31;12.10;99.90
34147;DHT22;20423;49.448;9.056;2022-10-26T07:33:56;12.10;99.90
34147;DHT22;20423;49.448;9.056;2022-10-26T07:36:22;12.10;99.90
34147;DHT22;20423;49.448;9.056;2022-10-26T07:38:51;12.20;99.90
34147;DHT22;20423;49.448;9.056;2022-10-26T07:41:17;12.30;99.90
34147;DHT22;20423;49.448;9.056;2022-10-26T07:43:43;12.40;99.90
34147;DHT22;20423;49.448;9.056;2022-10-26T07:46:11;12.50;99.90
34147;DHT22;20423;49.448;9.056;2022-10-26T07:48:36;12.50;99.90
34147;DHT22;20423;49.448;9.056;2022-10-26T07:51:06;12.50;99.90
34147;DHT22;20423;49.448;9.056;2022-10-26T07:53:31;12.50;99.90
34147;DHT22;20423;49.448;9.056;2022-10-26T07:55:57;12.50;99.90
34147;DHT22;20423;49.448;9.056;2022-10-26T07:58:41;12.50;99.90
34147;DHT22;20423;49.448;9.056;2022-10-26T08:01:13;12.50;99.90
34147;DHT22;20423;49.448;9.056;2022-10-26T08:07:28;12.50;99.90
34147;DHT22;20423;49.448;9.056;2022-10-26T08:09:53;12.60;99.90
34147;DHT22;20423;49.448;9.056;2022-10-26T08:12:21;12.70;99.90
34147;DHT22;20423;49.448;9.056;2022-10-26T08:14:46;12.80;99.90
34147;DHT22;20423;49.448;9.056;2022-10-26T08:17:12;13.00;99.90
34147;DHT22;20423;49.448;9.056;2022-10-26T08:19:38;13.30;99.90
34147;DHT22;20423;49.448;9.056;2022-10-26T08:22:03;13.40;99.90
34147;DHT22;20423;49.448;9.056;2022-10-26T08:27:40;13.90;99.90
34147;DHT22;20423;49.448;9.056;2022-10-26T08:30:06;14.10;99.90
34147;DHT22;20423;49.448;9.056;2022-10-26T08:32:32;14.20;99.90
34147;DHT22;20423;49.448;9.056;2022-10-26T08:34:58;14.20;99.90
34147;DHT22;20423;49.448;9.056;2022-10-26T08:37:23;14.30;99.90
34147;DHT22;20423;49.448;9.056;2022-10-26T08:39:49;14.30;99.90
34147;DHT22;20423;49.448;9.056;2022-10-26T08:42:42;14.40;99.90
34147;DHT22;20423;49.448;9.056;2022-10-26T08:45:23;14.60;99.90
34147;DHT22;20423;49.448;9.056;2022-10-26T08:47:52;14.60;99.90
34147;DHT22;20423;49.448;9.056;2022-10-26T08:50:35;14.60;99.90
34147;DHT22;20423;49.448;9.056;2022-10-26T08:55:46;14.50;99.90
34147;DHT22;20423;49.448;9.056;2022-10-26T08:58:15;14.40;99.90
34147;DHT22;20423;49.448;9.056;2022-10-26T09:00:44;14.20;99.90
34147;DHT22;20423;49.448;9.056;2022-10-26T09:03:16;14.20;99.90
34147;DHT22;20423;49.448;9.056;2022-10-26T09:11:29;14.60;99.90
34147;DHT22;20423;49.448;9.056;2022-10-26T09:14:15;14.90;99.90
34147;DHT22;20423;49.448;9.056;2022-10-26T09:17:06;15.20;99.90
34147;DHT22;20423;49.448;9.056;2022-10-26T09:19:49;15.50;99.90
34147;DHT22;20423;49.448;9.056;2022-10-26T09:25:22;15.70;99.90
34147;DHT22;20423;49.448;9.056;2022-10-26T09:27:55;15.70;99.90
34147;DHT22;20423;49.448;9.056;2022-10-26T09:30:21;15.70;99.90
34147;DHT22;20423;49.448;9.056;2022-10-26T09:32:59;15.80;99.90
34147;DHT22;20423;49.448;9.056;2022-10-26T09:35:41;15.60;99.90
34147;DHT22;20423;49.448;9.056;2022-10-26T09:41:26;15.30;99.90
34147;DHT22;20423;49.448;9.056;2022-10-26T09:46:31;16.20;99.90
34147;DHT22;20423;49.448;9.056;2022-10-26T09:49:05;16.80;99.90
34147;DHT22;20423;49.448;9.056;2022-10-26T09:51:35;17.10;99.90
34147;DHT22;20423;49.448;9.056;2022-10-26T09:54:01;17.50;99.90
34147;DHT22;20423;49.448;9.056;2022-10-26T09:56:30;17.90;99.90
34147;DHT22;20423;49.448;9.056;2022-10-26T09:59:01;18.20;99.90
34147;DHT22;20423;49.448;9.056;2022-10-26T10:01:50;18.20;99.90
34147;DHT22;20423;49.448;9.056;2022-10-26T10:04:19;18.20;99.90
34147;DHT22;20423;49.448;9.056;2022-10-26T10:09:27;18.20;99.90
34147;DHT22;20423;49.448;9.056;2022-10-26T10:11:58;18.20;99.90
34147;DHT22;20423;49.448;9.056;2022-10-26T10:14:30;18.20;99.90
34147;DHT22;20423;49.448;9.056;2022-10-26T10:17:05;18.10;99.90
34147;DHT22;20423;49.448;9.056;2022-10-26T10:19:34;18.40;99.90
34147;DHT22;20423;49.448;9.056;2022-10-26T10:22:08;18.20;99.90
34147;DHT22;20423;49.448;9.056;2022-10-26T10:24:37;18.00;99.90
34147;DHT22;20423;49.448;9.056;2022-10-26T10:29:54;17.90;99.90
34147;DHT22;20423;49.448;9.056;2022-10-26T10:32:26;17.90;99.90
34147;DHT22;20423;49.448;9.056;2022-10-26T10:34:55;17.60;99.90
34147;DHT22;20423;49.448;9.056;2022-10-26T10:37:36;17.30;99.90
34147;DHT22;20423;49.448;9.056;2022-10-26T10:40:07;17.10;99.90
34147;DHT22;20423;49.448;9.056;2022-10-26T10:42:38;17.10;99.90
34147;DHT22;20423;49.448;9.056;2022-10-26T10:45:06;17.20;99.90
34147;DHT22;20423;49.448;9.056;2022-10-26T10:47:57;17.20;99.90
34147;DHT22;20423;49.448;9.056;2022-10-26T10:50:24;17.20;99.90
34147;DHT22;20423;49.448;9.056;2022-10-26T10:52:49;17.30;99.90
34147;DHT22;20423;49.448;9.056;2022-10-26T10:55:19;17.40;99.90
34147;DHT22;20423;49.448;9.056;2022-10-26T10:58:12;17.30;99.90
34147;DHT22;20423;49.448;9.056;2022-10-26T11:00:43;17.10;99.90
34147;DHT22;20423;49.448;9.056;2022-10-26T11:03:46;16.70;99.90
34147;DHT22;20423;49.448;9.056;2022-10-26T11:06:20;16.60;99.90
34147;DHT22;20423;49.448;9.056;2022-10-26T11:09:03;16.60;99.90
34147;DHT22;20423;49.448;9.056;2022-10-26T11:11:34;16.50;99.90
34147;DHT22;20423;49.448;9.056;2022-10-26T11:17:34;16.20;99.90
34147;DHT22;20423;49.448;9.056;2022-10-26T11:20:02;16.20;99.90
34147;DHT22;20423;49.448;9.056;2022-10-26T11:22:39;16.50;99.90
34147;DHT22;20423;49.448;9.056;2022-10-26T11:25:15;17.10;99.90
34147;DHT22;20423;49.448;9.056;2022-10-26T11:27:44;17.70;99.90
34147;DHT22;20423;49.448;9.056;2022-10-26T11:30:18;18.40;99.90
34147;DHT22;20423;49.448;9.056;2022-10-26T11:35:58;19.10;99.90
34147;DHT22;20423;49.448;9.056;2022-10-26T11:47:01;19.20;99.90
34147;DHT22;20423;49.448;9.056;2022-10-26T11:57:38;17.50;99.90
34147;DHT22;20423;49.448;9.056;2022-10-26T12:00:19;17.40;99.90
34147;DHT22;20423;49.448;9.056;2022-10-26T12:02:55;17.40;99.90
34147;DHT22;20423;49.448;9.056;2022-10-26T12:07:58;17.70;99.90
34147;DHT22;20423;49.448;9.056;2022-10-26T12:10:28;17.50;99.90
34147;DHT22;20423;49.448;9.056;2022-10-26T12:13:08;17.30;99.90
34147;DHT22;20423;49.448;9.056;2022-10-26T12:15:43;17.40;99.90
34147;DHT22;20423;49.448;9.056;2022-10-26T12:20:52;17.40;99.90
34147;DHT22;20423;49.448;9.056;2022-10-26T12:23:19;17.40;99.90
34147;DHT22;20423;49.448;9.056;2022-10-26T12:25:45;17.50;99.90
34147;DHT22;20423;49.448;9.056;2022-10-26T12:28:44;17.60;99.90
34147;DHT22;20423;49.448;9.056;2022-10-26T12:33:58;18.00;99.90
34147;DHT22;20423;49.448;9.056;2022-10-26T12:45:31;18.40;99.90
34147;DHT22;20423;49.448;9.056;2022-10-26T12:48:03;18.50;99.90
34147;DHT22;20423;49.448;9.056;2022-10-26T12:50:29;18.60;99.90
34147;DHT22;20423;49.448;9.056;2022-10-26T12:52:57;18.60;99.90
34147;DHT22;20423;49.448;9.056;2022-10-26T13:01:07;18.50;99.90
34147;DHT22;20423;49.448;9.056;2022-10-26T13:08:49;18.80;99.90
34147;DHT22;20423;49.448;9.056;2022-10-26T13:13:43;18.80;99.90
34147;DHT22;20423;49.448;9.056;2022-10-26T13:16:10;18.70;99.90
34147;DHT22;20423;49.448;9.056;2022-10-26T13:18:41;18.70;99.90
34147;DHT22;20423;49.448;9.056;2022-10-26T13:21:13;18.60;99.90
34147;DHT22;20423;49.448;9.056;2022-10-26T13:23:42;18.60;99.90
34147;DHT22;20423;49.448;9.056;2022-10-26T13:26:10;18.40;99.90
34147;DHT22;20423;49.448;9.056;2022-10-26T13:33:50;17.90;99.90
34147;DHT22;20423;49.448;9.056;2022-10-26T13:36:33;17.60;99.90
34147;DHT22;20423;49.448;9.056;2022-10-26T13:39:11;17.40;99.90
34147;DHT22;20423;49.448;9.056;2022-10-26T13:41:42;17.30;99.90
34147;DHT22;20423;49.448;9.056;2022-10-26T13:44:21;17.30;99.90
34147;DHT22;20423;49.448;9.056;2022-10-26T13:46:52;17.40;99.90
34147;DHT22;20423;49.448;9.056;2022-10-26T13:49:25;17.60;99.90
34147;DHT22;20423;49.448;9.056;2022-10-26T13:51:53;17.90;99.90
34147;DHT22;20423;49.448;9.056;2022-10-26T13:59:31;18.40;99.90
34147;DHT22;20423;49.448;9.056;2022-10-26T14:02:17;18.50;99.90
34147;DHT22;20423;49.448;9.056;2022-10-26T14:04:51;18.40;99.90
34147;DHT22;20423;49.448;9.056;2022-10-26T14:07:21;18.20;99.90
34147;DHT22;20423;49.448;9.056;2022-10-26T14:09:52;18.00;99.90
34147;DHT22;20423;49.448;9.056;2022-10-26T14:12:18;17.70;99.90
34147;DHT22;20423;49.448;9.056;2022-10-26T14:14:44;17.50;99.90
34147;DHT22;20423;49.448;9.056;2022-10-26T14:17:24;17.30;99.90
34147;DHT22;20423;49.448;9.056;2022-10-26T14:19:50;17.20;99.90
34147;DHT22;20423;49.448;9.056;2022-10-26T14:22:22;17.10;99.90
34147;DHT22;20423;49.448;9.056;2022-10-26T14:24:54;17.10;99.90
34147;DHT22;20423;49.448;9.056;2022-10-26T14:27:20;17.00;99.90
34147;DHT22;20423;49.448;9.056;2022-10-26T14:29:56;16.90;99.90
34147;DHT22;20423;49.448;9.056;2022-10-26T14:32:31;16.80;99.90
34147;DHT22;20423;49.448;9.056;2022-10-26T14:34:58;16.70;99.90
34147;DHT22;20423;49.448;9.056;2022-10-26T14:39:57;16.70;99.90
34147;DHT22;20423;49.448;9.056;2022-10-26T14:42:30;16.60;99.90
34147;DHT22;20423;49.448;9.056;2022-10-26T14:44:57;16.60;99.90
34147;DHT22;20423;49.448;9.056;2022-10-26T14:47:32;16.50;99.90
34147;DHT22;20423;49.448;9.056;2022-10-26T14:50:00;16.50;99.90
34147;DHT22;20423;49.448;9.056;2022-10-26T14:52:32;16.50;99.90
34147;DHT22;20423;49.448;9.056;2022-10-26T14:55:19;16.50;99.90
34147;DHT22;20423;49.448;9.056;2022-10-26T14:57:47;16.50;99.90
34147;DHT22;20423;49.448;9.056;2022-10-26T15:00:15;16.50;99.90
34147;DHT22;20423;49.448;9.056;2022-10-26T15:02:59;16.50;99.90
34147;DHT22;20423;49.448;9.056;2022-10-26T15:05:34;16.40;99.90
34147;DHT22;20423;49.448;9.056;2022-10-26T15:08:00;16.40;99.90
34147;DHT22;20423;49.448;9.056;2022-10-26T15:15:48;16.10;99.90
34147;DHT22;20423;49.448;9.056;2022-10-26T15:21:42;15.90;99.90
34147;DHT22;20423;49.448;9.056;2022-10-26T15:24:24;15.80;99.90
34147;DHT22;20423;49.448;9.056;2022-10-26T15:26:51;15.80;99.90
34147;DHT22;20423;49.448;9.056;2022-10-26T15:29:43;15.70;99.90
34147;DHT22;20423;49.448;9.056;2022-10-26T15:32:24;15.60;99.90
34147;DHT22;20423;49.448;9.056;2022-10-26T15:37:35;15.30;99.90
34147;DHT22;20423;49.448;9.056;2022-10-26T15:40:00;15.30;99.90
34147;DHT22;20423;49.448;9.056;2022-10-26T15:42:27;15.20;99.90
34147;DHT22;20423;49.448;9.056;2022-10-26T15:44:53;15.10;99.90
34147;DHT22;20423;49.448;9.056;2022-10-26T15:47:19;15.00;99.90
34147;DHT22;20423;49.448;9.056;2022-10-26T15:49:45;14.90;99.90
34147;DHT22;20423;49.448;9.056;2022-10-26T15:52:11;14.80;99.90
34147;DHT22;20423;49.448;9.056;2022-10-26T15:54:37;14.70;99.90
34147;DHT22;20423;49.448;9.056;2022-10-26T15:57:03;14.50;99.90
34147;DHT22;20423;49.448;9.056;2022-10-26T15:59:29;14.40;99.90
34147;DHT22;20423;49.448;9.056;2022-10-26T16:01:54;14.20;99.90
34147;DHT22;20423;49.448;9.056;2022-10-26T16:04:20;14.10;99.90
34147;DHT22;20423;49.448;9.056;2022-10-26T16:06:46;13.90;99.90
34147;DHT22;20423;49.448;9.056;2022-10-26T16:09:14;13.80;99.90
34147;DHT22;20423;49.448;9.056;2022-10-26T16:11:41;13.70;99.90
34147;DHT22;20423;49.448;9.056;2022-10-26T16:14:09;13.50;99.90
34147;DHT22;20423;49.448;9.056;2022-10-26T16:16:35;13.50;99.90
34147;DHT22;20423;49.448;9.056;2022-10-26T16:19:00;13.30;99.90
34147;DHT22;20423;49.448;9.056;2022-10-26T16:21:26;13.30;99.90
34147;DHT22;20423;49.448;9.056;2022-10-26T16:23:54;13.20;99.90
34147;DHT22;20423;49.448;9.056;2022-10-26T16:26:21;13.10;99.90
34147;DHT22;20423;49.448;9.056;2022-10-26T16:28:47;13.10;99.90
34147;DHT22;20423;49.448;9.056;2022-10-26T16:31:16;13.00;99.90
34147;DHT22;20423;49.448;9.056;2022-10-26T16:33:42;13.00;99.90
34147;DHT22;20423;49.448;9.056;2022-10-26T16:36:11;12.90;99.90
34147;DHT22;20423;49.448;9.056;2022-10-26T16:38:38;12.80;99.90
34147;DHT22;20423;49.448;9.056;2022-10-26T16:41:09;12.80;99.90
34147;DHT22;20423;49.448;9.056;2022-10-26T16:43:39;12.80;99.90
34147;DHT22;20423;49.448;9.056;2022-10-26T16:46:13;12.80;99.90
34147;DHT22;20423;49.448;9.056;2022-10-26T16:48:40;12.90;99.90
34147;DHT22;20423;49.448;9.056;2022-10-26T16:51:14;12.90;99.90
34147;DHT22;20423;49.448;9.056;2022-10-26T16:53:40;12.90;99.90
34147;DHT22;20423;49.448;9.056;2022-10-26T16:56:09;12.90;99.90
34147;DHT22;20423;49.448;9.056;2022-10-26T16:58:35;12.90;99.90
34147;DHT22;20423;49.448;9.056;2022-10-26T17:01:01;12.90;99.90
34147;DHT22;20423;49.448;9.056;2022-10-26T17:03:27;13.00;99.90
34147;DHT22;20423;49.448;9.056;2022-10-26T17:05:57;12.90;99.90
34147;DHT22;20423;49.448;9.056;2022-10-26T17:12:10;12.80;99.90
34147;DHT22;20423;49.448;9.056;2022-10-26T17:14:36;12.80;99.90
34147;DHT22;20423;49.448;9.056;2022-10-26T17:17:03;12.70;99.90
34147;DHT22;20423;49.448;9.056;2022-10-26T17:19:28;12.60;99.90
34147;DHT22;20423;49.448;9.056;2022-10-26T17:21:54;12.50;99.90
34147;DHT22;20423;49.448;9.056;2022-10-26T17:24:20;12.40;99.90
34147;DHT22;20423;49.448;9.056;2022-10-26T17:26:45;12.30;99.90
34147;DHT22;20423;49.448;9.056;2022-10-26T17:29:12;12.30;99.90
34147;DHT22;20423;49.448;9.056;2022-10-26T17:31:38;12.30;99.90
34147;DHT22;20423;49.448;9.056;2022-10-26T17:34:04;12.40;99.90
34147;DHT22;20423;49.448;9.056;2022-10-26T17:36:30;12.40;99.90
34147;DHT22;20423;49.448;9.056;2022-10-26T17:38:56;12.50;99.90
34147;DHT22;20423;49.448;9.056;2022-10-26T17:41:23;12.50;99.90
34147;DHT22;20423;49.448;9.056;2022-10-26T17:43:49;12.40;99.90
34147;DHT22;20423;49.448;9.056;2022-10-26T17:46:16;12.40;99.90
34147;DHT22;20423;49.448;9.056;2022-10-26T17:48:43;12.40;99.90
34147;DHT22;20423;49.448;9.056;2022-10-26T17:51:18;12.30;99.90
34147;DHT22;20423;49.448;9.056;2022-10-26T17:53:48;12.20;99.90
34147;DHT22;20423;49.448;9.056;2022-10-26T17:56:17;12.20;99.90
34147;DHT22;20423;49.448;9.056;2022-10-26T17:58:43;12.20;99.90
34147;DHT22;20423;49.448;9.056;2022-10-26T18:01:11;12.10;99.90
34147;DHT22;20423;49.448;9.056;2022-10-26T18:03:38;12.10;99.90
34147;DHT22;20423;49.448;9.056;2022-10-26T18:06:05;12.10;99.90
34147;DHT22;20423;49.448;9.056;2022-10-26T18:08:35;12.00;99.90
34147;DHT22;20423;49.448;9.056;2022-10-26T18:11:04;12.00;99.90
34147;DHT22;20423;49.448;9.056;2022-10-26T18:13:31;12.00;99.90
34147;DHT22;20423;49.448;9.056;2022-10-26T18:16:06;12.00;99.90
34147;DHT22;20423;49.448;9.056;2022-10-26T18:18:33;12.00;99.90
34147;DHT22;20423;49.448;9.056;2022-10-26T18:21:03;12.10;99.90
34147;DHT22;20423;49.448;9.056;2022-10-26T18:23:29;12.00;99.90
34147;DHT22;20423;49.448;9.056;2022-10-26T18:26:00;12.00;99.90
34147;DHT22;20423;49.448;9.056;2022-10-26T18:28:26;12.10;99.90
34147;DHT22;20423;49.448;9.056;2022-10-26T18:30:51;12.10;99.90